sensor_id;sensor_type;location;lat;lon;timestamp;temperature;humidity
12847;DHT22;6492;48.128;8.320;2022-09-29T00:01:19;4.70;77.00
12847;DHT22;6492;48.128;8.320;2022-09-29T00:05:21;4.70;77.00
12847;DHT22;6492;48.128;8.320;2022-09-29T00:09:23;4.70;76.90
12847;DHT22;6492;48.128;8.320;2022-09-29T00:13:26;4.70;76.90
12847;DHT22;6492;48.128;8.320;2022-09-29T00:17:28;4.70;76.80
12847;DHT22;6492;48.128;8.320;2022-09-29T00:21:30;4.70;76.70
12847;DHT22;6492;48.128;8.320;2022-09-29T00:25:32;4.70;76.70
12847;DHT22;6492;48.128;8.320;2022-09-29T00:29:35;4.70;76.70
12847;DHT22;6492;48.128;8.320;2022-09-29T00:34:08;4.70;76.80
12847;DHT22;6492;48.128;8.320;2022-09-29T00:38:10;4.80;76.80
12847;DHT22;6492;48.128;8.320;2022-09-29T00:42:11;4.70;76.70
12847;DHT22;6492;48.128;8.320;2022-09-29T00:46:16;4.80;76.70
12847;DHT22;6492;48.128;8.320;2022-09-29T00:50:23;4.80;76.70
12847;DHT22;6492;48.128;8.320;2022-09-29T00:54:31;4.80;76.70
12847;DHT22;6492;48.128;8.320;2022-09-29T00:58:39;4.80;76.70
12847;DHT22;6492;48.128;8.320;2022-09-29T01:02:51;4.80;76.70
12847;DHT22;6492;48.128;8.320;2022-09-29T01:06:55;4.80;76.70
12847;DHT22;6492;48.128;8.320;2022-09-29T01:10:59;4.80;76.70
12847;DHT22;6492;48.128;8.320;2022-09-29T01:15:02;4.90;76.80
12847;DHT22;6492;48.128;8.320;2022-09-29T01:19:08;4.90;76.80
12847;DHT22;6492;48.128;8.320;2022-09-29T01:23:33;4.90;76.80
12847;DHT22;6492;48.128;8.320;2022-09-29T01:28:12;4.90;76.80
12847;DHT22;6492;48.128;8.320;2022-09-29T01:32:24;4.90;76.80
12847;DHT22;6492;48.128;8.320;2022-09-29T01:36:35;4.90;77.50
12847;DHT22;6492;48.128;8.320;2022-09-29T01:40:47;4.90;76.80
12847;DHT22;6492;48.128;8.320;2022-09-29T01:44:54;4.90;76.80
12847;DHT22;6492;48.128;8.320;2022-09-29T01:49:00;4.90;76.80
12847;DHT22;6492;48.128;8.320;2022-09-29T01:53:07;4.90;76.80
12847;DHT22;6492;48.128;8.320;2022-09-29T01:57:13;4.90;76.80
12847;DHT22;6492;48.128;8.320;2022-09-29T02:01:17;4.90;76.80
12847;DHT22;6492;48.128;8.320;2022-09-29T02:05:26;4.90;76.80
12847;DHT22;6492;48.128;8.320;2022-09-29T02:09:34;4.90;76.80
12847;DHT22;6492;48.128;8.320;2022-09-29T02:13:40;4.90;76.80
12847;DHT22;6492;48.128;8.320;2022-09-29T02:17:44;4.90;76.80
12847;DHT22;6492;48.128;8.320;2022-09-29T02:21:50;4.90;76.80
12847;DHT22;6492;48.128;8.320;2022-09-29T02:25:54;4.90;76.80
12847;DHT22;6492;48.128;8.320;2022-09-29T02:29:58;4.90;76.90
12847;DHT22;6492;48.128;8.320;2022-09-29T02:34:00;4.90;76.80
12847;DHT22;6492;48.128;8.320;2022-09-29T02:38:09;4.90;76.80
12847;DHT22;6492;48.128;8.320;2022-09-29T02:42:20;4.90;76.80
12847;DHT22;6492;48.128;8.320;2022-09-29T02:46:38;4.90;76.80
12847;DHT22;6492;48.128;8.320;2022-09-29T02:50:58;4.90;76.70
12847;DHT22;6492;48.128;8.320;2022-09-29T02:55:10;4.90;76.70
12847;DHT22;6492;48.128;8.320;2022-09-29T02:59:16;4.90;76.80
12847;DHT22;6492;48.128;8.320;2022-09-29T03:03:19;4.90;76.90
12847;DHT22;6492;48.128;8.320;2022-09-29T03:07:21;4.90;76.90
12847;DHT22;6492;48.128;8.320;2022-09-29T03:11:24;5.00;76.90
12847;DHT22;6492;48.128;8.320;2022-09-29T03:15:26;5.00;76.90
12847;DHT22;6492;48.128;8.320;2022-09-29T03:19:28;5.10;77.10
12847;DHT22;6492;48.128;8.320;2022-09-29T03:23:30;5.00;76.90
12847;DHT22;6492;48.128;8.320;2022-09-29T03:27:33;5.00;76.90
12847;DHT22;6492;48.128;8.320;2022-09-29T03:31:38;5.00;76.80
12847;DHT22;6492;48.128;8.320;2022-09-29T03:35:40;5.00;76.80
12847;DHT22;6492;48.128;8.320;2022-09-29T03:39:42;5.00;76.80
12847;DHT22;6492;48.128;8.320;2022-09-29T03:43:46;5.00;76.80
12847;DHT22;6492;48.128;8.320;2022-09-29T03:47:47;4.90;76.80
12847;DHT22;6492;48.128;8.320;2022-09-29T03:51:49;5.00;76.80
12847;DHT22;6492;48.128;8.320;2022-09-29T03:55:52;4.90;76.80
12847;DHT22;6492;48.128;8.320;2022-09-29T03:59:55;5.00;76.90
12847;DHT22;6492;48.128;8.320;2022-09-29T04:03:57;5.00;77.00
12847;DHT22;6492;48.128;8.320;2022-09-29T04:07:58;5.00;77.00
12847;DHT22;6492;48.128;8.320;2022-09-29T04:12:01;5.00;77.00
12847;DHT22;6492;48.128;8.320;2022-09-29T04:16:04;5.10;77.10
12847;DHT22;6492;48.128;8.320;2022-09-29T04:20:07;5.10;77.10
12847;DHT22;6492;48.128;8.320;2022-09-29T04:24:09;5.10;77.10
12847;DHT22;6492;48.128;8.320;2022-09-29T04:28:11;5.10;77.10
12847;DHT22;6492;48.128;8.320;2022-09-29T04:32:20;5.10;77.10
12847;DHT22;6492;48.128;8.320;2022-09-29T04:36:24;5.10;77.10
12847;DHT22;6492;48.128;8.320;2022-09-29T04:40:25;5.10;77.10
12847;DHT22;6492;48.128;8.320;2022-09-29T04:44:27;5.10;77.10
12847;DHT22;6492;48.128;8.320;2022-09-29T04:48:30;5.10;77.10
12847;DHT22;6492;48.128;8.320;2022-09-29T04:52:32;5.10;77.10
12847;DHT22;6492;48.128;8.320;2022-09-29T04:56:34;5.10;77.00
12847;DHT22;6492;48.128;8.320;2022-09-29T05:00:36;5.10;77.00
12847;DHT22;6492;48.128;8.320;2022-09-29T05:04:39;5.10;77.00
12847;DHT22;6492;48.128;8.320;2022-09-29T05:08:41;5.10;76.90
12847;DHT22;6492;48.128;8.320;2022-09-29T05:12:47;5.00;76.80
12847;DHT22;6492;48.128;8.320;2022-09-29T05:16:49;5.00;76.80
12847;DHT22;6492;48.128;8.320;2022-09-29T05:20:52;5.00;76.70
12847;DHT22;6492;48.128;8.320;2022-09-29T05:25:00;5.00;76.70
12847;DHT22;6492;48.128;8.320;2022-09-29T05:29:17;4.90;76.70
12847;DHT22;6492;48.128;8.320;2022-09-29T05:33:19;4.90;76.70
12847;DHT22;6492;48.128;8.320;2022-09-29T05:37:22;5.00;76.80
12847;DHT22;6492;48.128;8.320;2022-09-29T05:41:24;5.00;76.80
12847;DHT22;6492;48.128;8.320;2022-09-29T05:45:26;5.00;76.80
12847;DHT22;6492;48.128;8.320;2022-09-29T05:49:28;5.00;76.80
12847;DHT22;6492;48.128;8.320;2022-09-29T05:53:33;5.00;76.80
12847;DHT22;6492;48.128;8.320;2022-09-29T05:57:35;5.00;76.80
12847;DHT22;6492;48.128;8.320;2022-09-29T06:01:37;5.00;77.70
12847;DHT22;6492;48.128;8.320;2022-09-29T06:05:39;5.00;76.90
12847;DHT22;6492;48.128;8.320;2022-09-29T06:09:43;5.00;76.80
12847;DHT22;6492;48.128;8.320;2022-09-29T06:13:47;5.10;77.00
12847;DHT22;6492;48.128;8.320;2022-09-29T06:17:54;5.10;77.10
12847;DHT22;6492;48.128;8.320;2022-09-29T06:21:56;5.20;77.10
12847;DHT22;6492;48.128;8.320;2022-09-29T06:26:01;5.20;77.20
12847;DHT22;6492;48.128;8.320;2022-09-29T06:30:05;5.30;77.30
12847;DHT22;6492;48.128;8.320;2022-09-29T06:34:08;5.40;77.30
12847;DHT22;6492;48.128;8.320;2022-09-29T06:38:10;5.40;77.40
12847;DHT22;6492;48.128;8.320;2022-09-29T06:42:13;5.50;77.50
12847;DHT22;6492;48.128;8.320;2022-09-29T06:46:15;5.60;77.60
12847;DHT22;6492;48.128;8.320;2022-09-29T06:50:17;5.70;77.80
12847;DHT22;6492;48.128;8.320;2022-09-29T06:54:21;5.80;77.80
12847;DHT22;6492;48.128;8.320;2022-09-29T06:58:25;6.00;77.90
12847;DHT22;6492;48.128;8.320;2022-09-29T07:02:28;6.20;78.10
12847;DHT22;6492;48.128;8.320;2022-09-29T07:06:30;6.30;78.20
12847;DHT22;6492;48.128;8.320;2022-09-29T07:10:32;6.40;78.00
12847;DHT22;6492;48.128;8.320;2022-09-29T07:14:35;6.50;78.80
12847;DHT22;6492;48.128;8.320;2022-09-29T07:18:40;6.50;77.90
12847;DHT22;6492;48.128;8.320;2022-09-29T07:22:45;6.60;78.60
12847;DHT22;6492;48.128;8.320;2022-09-29T07:26:47;6.80;78.10
12847;DHT22;6492;48.128;8.320;2022-09-29T07:30:59;6.90;78.10
12847;DHT22;6492;48.128;8.320;2022-09-29T07:35:00;7.20;78.20
12847;DHT22;6492;48.128;8.320;2022-09-29T07:39:02;7.50;78.40
12847;DHT22;6492;48.128;8.320;2022-09-29T07:43:04;7.80;77.90
12847;DHT22;6492;48.128;8.320;2022-09-29T07:47:08;8.00;77.00
12847;DHT22;6492;48.128;8.320;2022-09-29T07:51:12;8.20;75.30
12847;DHT22;6492;48.128;8.320;2022-09-29T07:55:14;8.20;71.70
12847;DHT22;6492;48.128;8.320;2022-09-29T07:59:16;8.40;70.30
12847;DHT22;6492;48.128;8.320;2022-09-29T08:03:19;8.70;69.10
12847;DHT22;6492;48.128;8.320;2022-09-29T08:07:21;8.80;66.40
12847;DHT22;6492;48.128;8.320;2022-09-29T08:11:23;8.90;61.10
12847;DHT22;6492;48.128;8.320;2022-09-29T08:15:26;9.10;58.50
12847;DHT22;6492;48.128;8.320;2022-09-29T08:19:29;9.20;54.30
12847;DHT22;6492;48.128;8.320;2022-09-29T08:23:34;9.30;53.00
12847;DHT22;6492;48.128;8.320;2022-09-29T08:27:36;9.30;48.90
12847;DHT22;6492;48.128;8.320;2022-09-29T08:31:38;9.40;48.50
12847;DHT22;6492;48.128;8.320;2022-09-29T08:35:42;9.50;48.20
12847;DHT22;6492;48.128;8.320;2022-09-29T08:39:44;9.50;47.60
12847;DHT22;6492;48.128;8.320;2022-09-29T08:43:47;9.50;46.70
12847;DHT22;6492;48.128;8.320;2022-09-29T08:47:53;9.50;45.60
12847;DHT22;6492;48.128;8.320;2022-09-29T08:52:03;9.60;45.30
12847;DHT22;6492;48.128;8.320;2022-09-29T08:56:08;9.70;44.60
12847;DHT22;6492;48.128;8.320;2022-09-29T09:00:17;9.90;44.90
12847;DHT22;6492;48.128;8.320;2022-09-29T09:04:33;10.10;42.40
12847;DHT22;6492;48.128;8.320;2022-09-29T09:08:52;10.20;38.70
12847;DHT22;6492;48.128;8.320;2022-09-29T09:13:04;10.20;36.90
12847;DHT22;6492;48.128;8.320;2022-09-29T09:17:17;10.20;35.20
12847;DHT22;6492;48.128;8.320;2022-09-29T09:21:27;10.10;33.60
12847;DHT22;6492;48.128;8.320;2022-09-29T09:25:33;10.10;34.40
12847;DHT22;6492;48.128;8.320;2022-09-29T09:29:39;10.10;31.70
12847;DHT22;6492;48.128;8.320;2022-09-29T09:33:46;10.20;31.60
12847;DHT22;6492;48.128;8.320;2022-09-29T09:37:51;10.30;33.10
12847;DHT22;6492;48.128;8.320;2022-09-29T09:41:57;10.40;32.40
12847;DHT22;6492;48.128;8.320;2022-09-29T09:46:02;10.60;31.20
12847;DHT22;6492;48.128;8.320;2022-09-29T09:50:14;10.40;27.00
12847;DHT22;6492;48.128;8.320;2022-09-29T09:54:24;10.60;30.00
12847;DHT22;6492;48.128;8.320;2022-09-29T09:58:53;10.70;29.30
12847;DHT22;6492;48.128;8.320;2022-09-29T10:03:02;10.80;28.80
12847;DHT22;6492;48.128;8.320;2022-09-29T10:07:04;10.80;27.70
12847;DHT22;6492;48.128;8.320;2022-09-29T10:11:18;10.70;28.40
12847;DHT22;6492;48.128;8.320;2022-09-29T10:15:26;10.70;28.80
12847;DHT22;6492;48.128;8.320;2022-09-29T10:19:53;11.00;28.80
12847;DHT22;6492;48.128;8.320;2022-09-29T10:23:56;11.40;28.20
12847;DHT22;6492;48.128;8.320;2022-09-29T10:28:00;11.60;25.80
12847;DHT22;6492;48.128;8.320;2022-09-29T10:32:06;11.80;23.90
12847;DHT22;6492;48.128;8.320;2022-09-29T10:36:09;12.10;23.30
12847;DHT22;6492;48.128;8.320;2022-09-29T10:40:16;12.40;23.10
12847;DHT22;6492;48.128;8.320;2022-09-29T10:44:21;12.60;21.10
12847;DHT22;6492;48.128;8.320;2022-09-29T10:48:25;12.70;19.70
12847;DHT22;6492;48.128;8.320;2022-09-29T10:52:27;12.80;17.80
12847;DHT22;6492;48.128;8.320;2022-09-29T10:56:30;12.80;18.30
12847;DHT22;6492;48.128;8.320;2022-09-29T11:00:34;12.90;18.10
12847;DHT22;6492;48.128;8.320;2022-09-29T11:04:37;13.20;19.00
12847;DHT22;6492;48.128;8.320;2022-09-29T11:08:57;13.40;18.30
12847;DHT22;6492;48.128;8.320;2022-09-29T11:13:33;13.60;15.80
12847;DHT22;6492;48.128;8.320;2022-09-29T11:17:37;13.70;15.40
12847;DHT22;6492;48.128;8.320;2022-09-29T11:22:18;13.70;15.20
12847;DHT22;6492;48.128;8.320;2022-09-29T11:26:26;13.60;15.10
12847;DHT22;6492;48.128;8.320;2022-09-29T11:35:24;13.80;15.20
12847;DHT22;6492;48.128;8.320;2022-09-29T11:39:39;13.90;15.40
12847;DHT22;6492;48.128;8.320;2022-09-29T11:43:46;14.00;15.50
12847;DHT22;6492;48.128;8.320;2022-09-29T11:52:45;14.30;14.10
12847;DHT22;6492;48.128;8.320;2022-09-29T11:56:58;14.10;10.30
12847;DHT22;6492;48.128;8.320;2022-09-29T12:01:14;14.10;9.00
12847;DHT22;6492;48.128;8.320;2022-09-29T12:05:24;14.10;10.60
12847;DHT22;6492;48.128;8.320;2022-09-29T12:14:25;13.70;12.50
12847;DHT22;6492;48.128;8.320;2022-09-29T12:18:35;13.70;13.60
12847;DHT22;6492;48.128;8.320;2022-09-29T12:22:39;13.70;13.20
12847;DHT22;6492;48.128;8.320;2022-09-29T12:26:43;13.70;13.70
12847;DHT22;6492;48.128;8.320;2022-09-29T12:30:51;13.40;12.80
12847;DHT22;6492;48.128;8.320;2022-09-29T12:35:15;13.30;12.80
12847;DHT22;6492;48.128;8.320;2022-09-29T12:39:48;13.30;14.30
12847;DHT22;6492;48.128;8.320;2022-09-29T12:43:57;13.30;13.70
12847;DHT22;6492;48.128;8.320;2022-09-29T12:48:23;13.40;13.60
12847;DHT22;6492;48.128;8.320;2022-09-29T12:52:45;13.30;11.60
12847;DHT22;6492;48.128;8.320;2022-09-29T12:56:55;13.10;14.00
12847;DHT22;6492;48.128;8.320;2022-09-29T13:01:08;13.00;13.20
12847;DHT22;6492;48.128;8.320;2022-09-29T13:05:37;12.80;14.10
12847;DHT22;6492;48.128;8.320;2022-09-29T13:09:58;12.60;14.10
12847;DHT22;6492;48.128;8.320;2022-09-29T13:14:29;12.50;15.30
12847;DHT22;6492;48.128;8.320;2022-09-29T13:18:49;12.60;16.50
12847;DHT22;6492;48.128;8.320;2022-09-29T13:23:13;12.60;15.50
12847;DHT22;6492;48.128;8.320;2022-09-29T13:27:30;12.80;16.30
12847;DHT22;6492;48.128;8.320;2022-09-29T13:31:37;12.80;15.00
12847;DHT22;6492;48.128;8.320;2022-09-29T13:35:42;12.90;15.90
12847;DHT22;6492;48.128;8.320;2022-09-29T13:39:54;12.80;14.20
12847;DHT22;6492;48.128;8.320;2022-09-29T13:44:22;12.70;13.00
12847;DHT22;6492;48.128;8.320;2022-09-29T13:48:45;12.50;13.70
12847;DHT22;6492;48.128;8.320;2022-09-29T13:52:50;12.50;16.70
12847;DHT22;6492;48.128;8.320;2022-09-29T14:01:32;12.40;16.30
12847;DHT22;6492;48.128;8.320;2022-09-29T14:05:43;12.20;16.90
12847;DHT22;6492;48.128;8.320;2022-09-29T14:09:47;12.10;17.40
12847;DHT22;6492;48.128;8.320;2022-09-29T14:13:56;12.10;18.30
12847;DHT22;6492;48.128;8.320;2022-09-29T14:18:02;12.10;18.60
12847;DHT22;6492;48.128;8.320;2022-09-29T14:26:43;11.90;18.90
12847;DHT22;6492;48.128;8.320;2022-09-29T14:30:50;11.80;20.40
12847;DHT22;6492;48.128;8.320;2022-09-29T14:34:52;11.60;20.80
12847;DHT22;6492;48.128;8.320;2022-09-29T14:38:56;11.50;21.30
12847;DHT22;6492;48.128;8.320;2022-09-29T14:43:09;11.30;22.60
12847;DHT22;6492;48.128;8.320;2022-09-29T14:47:29;11.10;23.10
12847;DHT22;6492;48.128;8.320;2022-09-29T14:51:54;10.80;24.00
12847;DHT22;6492;48.128;8.320;2022-09-29T14:56:10;10.80;25.40
12847;DHT22;6492;48.128;8.320;2022-09-29T15:00:16;10.80;26.20
12847;DHT22;6492;48.128;8.320;2022-09-29T15:04:21;10.70;26.40
12847;DHT22;6492;48.128;8.320;2022-09-29T15:08:27;10.50;26.90
12847;DHT22;6492;48.128;8.320;2022-09-29T15:12:31;10.40;27.60
12847;DHT22;6492;48.128;8.320;2022-09-29T15:16:43;10.30;28.50
12847;DHT22;6492;48.128;8.320;2022-09-29T15:20:55;10.10;30.30
12847;DHT22;6492;48.128;8.320;2022-09-29T15:25:14;10.00;31.50
12847;DHT22;6492;48.128;8.320;2022-09-29T15:29:19;9.90;32.30
12847;DHT22;6492;48.128;8.320;2022-09-29T15:33:22;9.90;34.00
12847;DHT22;6492;48.128;8.320;2022-09-29T15:41:58;9.80;34.90
12847;DHT22;6492;48.128;8.320;2022-09-29T15:46:07;9.80;35.80
12847;DHT22;6492;48.128;8.320;2022-09-29T15:50:25;9.70;35.40
12847;DHT22;6492;48.128;8.320;2022-09-29T15:54:33;9.60;35.90
12847;DHT22;6492;48.128;8.320;2022-09-29T15:58:43;9.60;35.50
12847;DHT22;6492;48.128;8.320;2022-09-29T16:02:50;9.50;36.30
12847;DHT22;6492;48.128;8.320;2022-09-29T16:06:54;9.40;36.90
12847;DHT22;6492;48.128;8.320;2022-09-29T16:11:00;9.20;36.40
12847;DHT22;6492;48.128;8.320;2022-09-29T16:15:02;9.00;34.80
12847;DHT22;6492;48.128;8.320;2022-09-29T16:19:12;8.70;35.50
12847;DHT22;6492;48.128;8.320;2022-09-29T16:23:19;8.50;36.60
12847;DHT22;6492;48.128;8.320;2022-09-29T16:27:49;8.20;39.80
12847;DHT22;6492;48.128;8.320;2022-09-29T16:31:53;8.00;41.70
12847;DHT22;6492;48.128;8.320;2022-09-29T16:36:11;7.90;44.80
12847;DHT22;6492;48.128;8.320;2022-09-29T16:40:17;7.70;46.70
12847;DHT22;6492;48.128;8.320;2022-09-29T16:44:34;7.90;48.10
12847;DHT22;6492;48.128;8.320;2022-09-29T16:48:42;7.60;48.20
12847;DHT22;6492;48.128;8.320;2022-09-29T16:52:46;7.50;48.70
12847;DHT22;6492;48.128;8.320;2022-09-29T16:56:49;7.50;49.50
12847;DHT22;6492;48.128;8.320;2022-09-29T17:01:23;7.40;50.10
12847;DHT22;6492;48.128;8.320;2022-09-29T17:05:25;7.30;51.70
12847;DHT22;6492;48.128;8.320;2022-09-29T17:09:28;7.30;53.50
12847;DHT22;6492;48.128;8.320;2022-09-29T17:13:56;7.20;54.30
12847;DHT22;6492;48.128;8.320;2022-09-29T17:18:29;7.20;55.20
12847;DHT22;6492;48.128;8.320;2022-09-29T17:22:37;7.10;56.20
12847;DHT22;6492;48.128;8.320;2022-09-29T17:26:50;7.10;56.80
12847;DHT22;6492;48.128;8.320;2022-09-29T17:31:30;7.00;57.00
12847;DHT22;6492;48.128;8.320;2022-09-29T17:35:36;6.80;57.40
12847;DHT22;6492;48.128;8.320;2022-09-29T17:39:40;6.70;58.20
12847;DHT22;6492;48.128;8.320;2022-09-29T17:43:42;6.70;58.90
12847;DHT22;6492;48.128;8.320;2022-09-29T17:47:59;6.70;59.30
12847;DHT22;6492;48.128;8.320;2022-09-29T17:52:14;6.60;59.50
12847;DHT22;6492;48.128;8.320;2022-09-29T17:56:23;6.60;59.90
12847;DHT22;6492;48.128;8.320;2022-09-29T18:00:36;6.60;60.20
12847;DHT22;6492;48.128;8.320;2022-09-29T18:04:38;6.50;60.30
12847;DHT22;6492;48.128;8.320;2022-09-29T18:08:44;6.40;60.30
12847;DHT22;6492;48.128;8.320;2022-09-29T18:12:52;6.40;60.80
12847;DHT22;6492;48.128;8.320;2022-09-29T18:17:12;6.30;61.50
12847;DHT22;6492;48.128;8.320;2022-09-29T18:21:15;6.30;62.20
12847;DHT22;6492;48.128;8.320;2022-09-29T18:25:28;6.30;62.40
12847;DHT22;6492;48.128;8.320;2022-09-29T18:29:30;6.20;62.50
12847;DHT22;6492;48.128;8.320;2022-09-29T18:33:33;6.20;62.90
12847;DHT22;6492;48.128;8.320;2022-09-29T18:37:34;6.10;63.40
12847;DHT22;6492;48.128;8.320;2022-09-29T18:41:38;6.20;63.90
12847;DHT22;6492;48.128;8.320;2022-09-29T18:45:46;6.10;63.90
12847;DHT22;6492;48.128;8.320;2022-09-29T18:49:48;6.10;63.90
12847;DHT22;6492;48.128;8.320;2022-09-29T18:53:51;6.10;64.10
12847;DHT22;6492;48.128;8.320;2022-09-29T18:57:55;6.10;64.10
12847;DHT22;6492;48.128;8.320;2022-09-29T19:02:00;6.10;64.20
12847;DHT22;6492;48.128;8.320;2022-09-29T19:06:02;6.10;64.40
12847;DHT22;6492;48.128;8.320;2022-09-29T19:10:04;6.10;64.70
12847;DHT22;6492;48.128;8.320;2022-09-29T19:14:08;6.10;64.80
12847;DHT22;6492;48.128;8.320;2022-09-29T19:18:14;6.10;65.00
12847;DHT22;6492;48.128;8.320;2022-09-29T19:22:17;6.00;65.20
12847;DHT22;6492;48.128;8.320;2022-09-29T19:26:19;6.10;65.60
12847;DHT22;6492;48.128;8.320;2022-09-29T19:30:25;6.00;65.80
12847;DHT22;6492;48.128;8.320;2022-09-29T19:34:30;6.00;66.20
12847;DHT22;6492;48.128;8.320;2022-09-29T19:38:33;6.00;66.60
12847;DHT22;6492;48.128;8.320;2022-09-29T19:42:36;6.00;66.80
12847;DHT22;6492;48.128;8.320;2022-09-29T19:46:39;6.00;67.00
12847;DHT22;6492;48.128;8.320;2022-09-29T19:50:41;6.00;67.10
12847;DHT22;6492;48.128;8.320;2022-09-29T19:55:01;6.10;67.40
12847;DHT22;6492;48.128;8.320;2022-09-29T19:59:11;6.00;67.50
12847;DHT22;6492;48.128;8.320;2022-09-29T20:03:15;6.10;67.80
12847;DHT22;6492;48.128;8.320;2022-09-29T20:07:21;6.00;67.80
12847;DHT22;6492;48.128;8.320;2022-09-29T20:11:23;6.10;68.10
12847;DHT22;6492;48.128;8.320;2022-09-29T20:15:26;6.00;67.90
12847;DHT22;6492;48.128;8.320;2022-09-29T20:19:29;6.00;67.90
12847;DHT22;6492;48.128;8.320;2022-09-29T20:23:31;6.00;68.10
12847;DHT22;6492;48.128;8.320;2022-09-29T20:27:33;6.00;68.30
12847;DHT22;6492;48.128;8.320;2022-09-29T20:31:35;5.90;68.50
12847;DHT22;6492;48.128;8.320;2022-09-29T20:35:39;6.00;69.00
12847;DHT22;6492;48.128;8.320;2022-09-29T20:39:54;6.70;69.10
12847;DHT22;6492;48.128;8.320;2022-09-29T20:44:02;5.90;68.70
12847;DHT22;6492;48.128;8.320;2022-09-29T20:48:04;5.80;68.60
12847;DHT22;6492;48.128;8.320;2022-09-29T20:52:07;5.80;69.10
12847;DHT22;6492;48.128;8.320;2022-09-29T20:56:10;5.80;69.70
12847;DHT22;6492;48.128;8.320;2022-09-29T21:00:15;5.80;70.20
12847;DHT22;6492;48.128;8.320;2022-09-29T21:04:19;5.70;70.20
12847;DHT22;6492;48.128;8.320;2022-09-29T21:08:22;5.70;70.40
12847;DHT22;6492;48.128;8.320;2022-09-29T21:12:26;5.70;70.60
12847;DHT22;6492;48.128;8.320;2022-09-29T21:16:28;5.70;70.90
12847;DHT22;6492;48.128;8.320;2022-09-29T21:20:29;5.70;71.20
12847;DHT22;6492;48.128;8.320;2022-09-29T21:24:33;5.70;71.20
12847;DHT22;6492;48.128;8.320;2022-09-29T21:28:39;5.70;71.30
12847;DHT22;6492;48.128;8.320;2022-09-29T21:32:41;5.70;71.40
12847;DHT22;6492;48.128;8.320;2022-09-29T21:36:43;5.60;71.40
12847;DHT22;6492;48.128;8.320;2022-09-29T21:40:46;5.70;71.70
12847;DHT22;6492;48.128;8.320;2022-09-29T21:44:48;5.70;71.80
12847;DHT22;6492;48.128;8.320;2022-09-29T21:48:50;5.70;72.00
12847;DHT22;6492;48.128;8.320;2022-09-29T21:52:52;5.70;72.20
12847;DHT22;6492;48.128;8.320;2022-09-29T21:56:55;5.70;72.30
12847;DHT22;6492;48.128;8.320;2022-09-29T22:00:57;5.70;72.40
12847;DHT22;6492;48.128;8.320;2022-09-29T22:04:59;5.70;72.40
12847;DHT22;6492;48.128;8.320;2022-09-29T22:09:02;5.80;72.60
12847;DHT22;6492;48.128;8.320;2022-09-29T22:13:06;5.80;72.70
12847;DHT22;6492;48.128;8.320;2022-09-29T22:17:07;5.70;72.60
12847;DHT22;6492;48.128;8.320;2022-09-29T22:21:11;5.70;72.70
12847;DHT22;6492;48.128;8.320;2022-09-29T22:25:14;5.70;72.70
12847;DHT22;6492;48.128;8.320;2022-09-29T22:29:17;5.90;73.10
12847;DHT22;6492;48.128;8.320;2022-09-29T22:33:20;5.70;72.80
12847;DHT22;6492;48.128;8.320;2022-09-29T22:37:22;5.70;72.80
12847;DHT22;6492;48.128;8.320;2022-09-29T22:41:26;5.70;72.90
12847;DHT22;6492;48.128;8.320;2022-09-29T22:45:30;5.70;72.90
12847;DHT22;6492;48.128;8.320;2022-09-29T22:49:32;5.70;73.00
12847;DHT22;6492;48.128;8.320;2022-09-29T22:53:34;5.70;73.10
12847;DHT22;6492;48.128;8.320;2022-09-29T22:57:37;5.70;73.20
12847;DHT22;6492;48.128;8.320;2022-09-29T23:01:40;5.70;73.20
12847;DHT22;6492;48.128;8.320;2022-09-29T23:05:42;5.70;73.20
12847;DHT22;6492;48.128;8.320;2022-09-29T23:09:44;5.70;73.20
12847;DHT22;6492;48.128;8.320;2022-09-29T23:13:46;5.60;73.00
12847;DHT22;6492;48.128;8.320;2022-09-29T23:17:50;5.60;73.00
12847;DHT22;6492;48.128;8.320;2022-09-29T23:21:51;5.60;73.10
12847;DHT22;6492;48.128;8.320;2022-09-29T23:25:53;5.50;73.00
12847;DHT22;6492;48.128;8.320;2022-09-29T23:29:55;5.40;72.70
12847;DHT22;6492;48.128;8.320;2022-09-29T23:33:59;5.40;72.50
12847;DHT22;6492;48.128;8.320;2022-09-29T23:38:01;5.30;72.40
12847;DHT22;6492;48.128;8.320;2022-09-29T23:42:20;5.20;72.50
12847;DHT22;6492;48.128;8.320;2022-09-29T23:46:24;5.20;72.90
12847;DHT22;6492;48.128;8.320;2022-09-29T23:50:27;5.20;73.20
12847;DHT22;6492;48.128;8.320;2022-09-29T23:54:32;5.20;73.70
12847;DHT22;6492;48.128;8.320;2022-09-29T23:58:34;5.30;74.00
